クリスマス島空港の過去48時間の天気

クリスマス島空港 (Christmas Island Aerodrome)

現在時刻: 9/26 04:08 +07 (9/25 21:08 UTC) 以下の時間は現地時間です。

過去48時間のMETAR気象情報
時間 風向 風速(m/s) 視程 気温(℃) 湿度(%) 気圧(hPa) 天気現象
26 04:00 南東 5 10km以上 24 89 1013
26 03:30 南東 5 10km以上 24 89 1013
26 03:00 南東 5 10km以上 24 89 1014
26 02:30 南東 5 10km以上 24 89 1014
YPXM 252100Z AUTO 13009KT 9999 // OVC010 OVC014 24/22 Q1013
YPXM 252030Z AUTO 13009KT 9999 // OVC010 24/22 Q1013 RF00.0/000.0
YPXM 252000Z AUTO 13009KT 9999 // BKN010 24/22 Q1014 RF00/0/000/0
YPXM 251930Z AUTO 13009KT 9999 // BKN010 OVC043 24/22 Q1014